Terminal Aerodrome Forecast
Issued by NWS

Home | Current Version | Previous Version | Text Only | Print | Product List | Glossary On
Versions: 1 2 3 4 5 6 7 8 9 10 11 12 13 14
127
FTUS45 KABQ 281722
TAFSAF
TAF
KSAF 281722Z 2818/2918 05007KT P6SM FEW120
     FM282000 13011KT P6SM FEW120
     FM282300 14013G23KT P6SM SCT120
     FM290200 12011KT P6SM SCT120
     FM290600 07007KT P6SM BKN120=

USA.gov is the U.S. government's official web portal to all federal, state and local government web resources and services.